createdAt,value
2019-04-11T00:01:06.005Z,79.04
2019-04-11T00:03:35.568Z,79.34
2019-04-11T00:06:05.444Z,79.35
2019-04-11T00:08:35.787Z,79.84
2019-04-11T00:11:05.924Z,79.78
2019-04-11T00:13:36.417Z,79.61
2019-04-11T00:16:06.789Z,80.18
2019-04-11T00:18:35.916Z,79.86
2019-04-11T00:21:04.604Z,79.96
2019-04-11T00:23:34.347Z,79.88
2019-04-11T00:26:04.988Z,79.96
2019-04-11T00:28:34.156Z,80.21
2019-04-11T00:31:04.222Z,80.62
2019-04-11T00:33:34.058Z,80.47
2019-04-11T00:36:04.204Z,80.50
2019-04-11T00:38:34.096Z,80.64
2019-04-11T00:41:03.794Z,80.64
2019-04-11T00:43:37.697Z,80.94
2019-04-11T00:46:04.396Z,80.75
2019-04-11T00:48:33.541Z,80.75
2019-04-11T00:51:03.452Z,80.69
2019-04-11T00:53:32.515Z,80.63
2019-04-11T00:56:02.017Z,80.70
2019-04-11T00:58:31.870Z,81.13
2019-04-11T01:01:01.764Z,80.79
2019-04-11T01:03:30.724Z,80.94
2019-04-11T01:05:59.457Z,81.57
2019-04-11T01:08:29.381Z,81.82
2019-04-11T01:10:59.386Z,82.16
2019-04-11T01:13:39.697Z,82.35
2019-04-11T01:16:05.026Z,82.47
2019-04-11T01:18:34.039Z,81.77
2019-04-11T01:21:02.705Z,81.76
2019-04-11T01:23:31.496Z,81.70
2019-04-11T01:26:01.178Z,82.14
2019-04-11T01:28:31.007Z,82.57
2019-04-11T01:31:03.327Z,81.34
2019-04-11T01:33:32.227Z,81.47
2019-04-11T01:36:01.055Z,81.78
2019-04-11T01:38:30.900Z,82.13
2019-04-11T01:41:00.291Z,82.25
2019-04-11T01:43:29.614Z,83.04
2019-04-11T01:46:00.100Z,82.50
2019-04-11T01:48:43.899Z,82.71
2019-04-11T01:51:13.754Z,82.83
2019-04-11T01:53:43.580Z,82.18
2019-04-11T01:56:12.807Z,82.26
2019-04-11T01:58:42.601Z,82.77
2019-04-11T02:01:20.962Z,83.30
2019-04-11T02:04:03.580Z,83.24
2019-04-11T02:06:32.743Z,83.27
2019-04-11T02:09:03.746Z,83.19
2019-04-11T02:11:33.851Z,82.98
2019-04-11T02:14:10.439Z,82.49
2019-04-11T02:16:33.468Z,81.91
2019-04-11T02:19:02.302Z,80.57
2019-04-11T02:21:31.277Z,81.32
2019-04-11T02:24:05.924Z,82.48
2019-04-11T02:26:35.722Z,83.44
2019-04-11T02:29:05.433Z,82.72
2019-04-11T02:31:34.961Z,82.22
2019-04-11T02:34:06.438Z,82.40
2019-04-11T02:36:36.469Z,82.68
2019-04-11T02:39:12.946Z,83.21
2019-04-11T02:41:39.830Z,81.61
2019-04-11T02:44:28.590Z,81.33
2019-04-11T02:46:45.843Z,81.83
2019-04-11T02:49:10.237Z,81.92
2019-04-11T02:51:40.196Z,81.37
2019-04-11T02:54:09.163Z,81.19
2019-04-11T02:56:37.972Z,81.19
2019-04-11T02:59:06.719Z,81.11
2019-04-11T03:01:36.301Z,80.69
2019-04-11T03:04:07.185Z,80.39
2019-04-11T03:06:36.944Z,79.91
2019-04-11T03:09:07.256Z,80.14
2019-04-11T03:11:36.530Z,81.47
2019-04-11T03:14:05.370Z,81.06
2019-04-11T03:16:46.098Z,81.26
2019-04-11T03:19:18.002Z,80.03
2019-04-11T03:21:39.235Z,79.82
2019-04-11T03:24:10.364Z,79.74
2019-04-11T03:26:37.769Z,79.57
2019-04-11T03:29:08.470Z,79.90
2019-04-11T03:39:27.747Z,80.61
2019-04-11T03:41:54.671Z,80.91
2019-04-11T03:44:18.874Z,80.96
2019-04-11T03:46:53.925Z,80.91
2019-04-11T03:49:25.024Z,81.07
2019-04-11T03:51:45.404Z,80.99
2019-04-11T03:54:15.703Z,80.78
2019-04-11T03:56:45.820Z,80.87
2019-04-11T03:59:16.756Z,80.88
2019-04-11T04:01:46.750Z,80.79
2019-04-11T04:04:19.317Z,80.83
2019-04-11T04:06:47.897Z,80.89
2019-04-11T04:09:19.220Z,80.95
2019-04-11T04:11:49.485Z,81.05
2019-04-11T04:14:34.378Z,80.99
2019-04-11T04:17:25.344Z,80.79
2019-04-11T04:20:19.935Z,80.47
2019-04-11T04:23:03.021Z,80.58
2019-04-11T04:25:32.522Z,80.48
2019-04-11T04:28:02.902Z,80.44
2019-04-11T04:30:33.626Z,80.84
2019-04-11T04:33:02.860Z,80.38
2019-04-11T04:35:33.881Z,80.42
2019-04-11T04:38:05.150Z,80.41
2019-04-11T04:40:49.604Z,80.21
2019-04-11T04:43:07.617Z,80.42
2019-04-11T04:45:59.851Z,80.57
2019-04-11T04:48:11.490Z,80.30
2019-04-11T04:50:39.205Z,80.55
2019-04-11T04:53:09.265Z,81.08
2019-04-11T04:55:38.845Z,81.02
2019-04-11T04:58:09.116Z,81.21
2019-04-11T05:00:39.504Z,81.88
2019-04-11T05:03:09.883Z,81.84
2019-04-11T05:05:39.205Z,81.96
2019-04-11T05:08:08.476Z,82.31
2019-04-11T05:10:40.181Z,82.71
2019-04-11T05:13:09.922Z,82.62
2019-04-11T05:15:41.571Z,82.49
2019-04-11T05:18:11.478Z,82.23
2019-04-11T05:20:40.729Z,82.41
2019-04-11T05:23:09.647Z,82.95
2019-04-11T05:25:39.059Z,83.14
2019-04-11T05:28:07.743Z,83.41
2019-04-11T05:30:36.478Z,82.87
2019-04-11T05:33:06.010Z,82.92
2019-04-11T05:35:36.190Z,82.72
2019-04-11T05:38:05.043Z,82.36
2019-04-11T05:40:34.380Z,81.99
2019-04-11T05:43:03.879Z,82.29
2019-04-11T05:45:33.786Z,82.20
2019-04-11T05:48:05.153Z,82.49
2019-04-11T05:50:36.196Z,82.22
2019-04-11T05:53:05.615Z,82.19
2019-04-11T05:55:41.560Z,82.05
2019-04-11T05:58:12.296Z,82.53
2019-04-11T06:00:50.761Z,82.42
2019-04-11T06:03:19.604Z,82.79
2019-04-11T06:05:59.931Z,82.28
2019-04-11T06:08:29.118Z,82.31
2019-04-11T06:11:14.578Z,81.69
2019-04-11T06:13:46.881Z,81.18
2019-04-11T06:16:16.757Z,81.36
2019-04-11T06:18:59.068Z,80.63
2019-04-11T06:21:31.739Z,80.25
2019-04-11T06:24:18.208Z,78.99
2019-04-11T06:26:54.646Z,78.59
2019-04-11T06:29:35.185Z,78.00
2019-04-11T06:32:23.580Z,77.46
2019-04-11T06:34:58.071Z,76.26
2019-04-11T06:37:45.488Z,76.01
2019-04-11T06:40:24.827Z,75.26
2019-04-11T06:43:01.447Z,74.67
2019-04-11T06:45:58.633Z,74.67
2019-04-11T06:48:35.992Z,75.04
2019-04-11T06:51:15.613Z,74.62
2019-04-11T06:53:52.954Z,74.98
2019-04-11T06:56:36.938Z,74.98
2019-04-11T06:59:10.158Z,74.83
2019-04-11T07:01:41.000Z,74.83
2019-04-11T07:04:25.371Z,74.10
2019-04-11T07:06:55.880Z,74.08
2019-04-11T07:09:49.645Z,74.09
2019-04-11T07:12:25.002Z,73.57
2019-04-11T07:15:25.180Z,73.82
2019-04-11T07:18:11.966Z,73.39
2019-04-11T07:21:00.639Z,72.44
2019-04-11T07:23:49.010Z,72.04
2019-04-11T07:26:27.395Z,71.55
2019-04-11T07:29:21.816Z,71.55
2019-04-11T07:32:09.423Z,71.81
2019-04-11T07:34:56.570Z,71.68
2019-04-11T07:37:36.768Z,70.35
2019-04-11T07:40:29.369Z,70.73
2019-04-11T07:43:19.081Z,70.73
2019-04-11T07:45:55.933Z,70.55
2019-04-11T07:48:29.241Z,68.87
2019-04-11T07:51:08.853Z,68.25
2019-04-11T07:53:40.382Z,67.44
2019-04-11T07:56:09.840Z,67.44
2019-04-11T07:58:45.971Z,67.17
2019-04-11T08:01:40.376Z,66.66
2019-04-11T08:04:27.765Z,65.20
2019-04-11T08:07:16.344Z,65.20
2019-04-11T08:09:50.654Z,65.49
2019-04-11T08:12:23.465Z,65.59
2019-04-11T08:15:29.913Z,66.25
2019-04-11T08:18:01.981Z,66.25
2019-04-11T08:20:50.008Z,65.84
2019-04-11T08:23:20.030Z,65.31
2019-04-11T08:26:17.940Z,64.59
2019-04-11T08:28:59.283Z,64.32
2019-04-11T08:31:30.738Z,63.42
2019-04-11T08:34:02.769Z,63.98
2019-04-11T08:36:50.495Z,62.75
2019-04-11T08:39:26.035Z,61.19
2019-04-11T08:42:17.727Z,63.14
2019-04-11T08:44:48.016Z,62.72
2019-04-11T08:47:18.766Z,62.09
2019-04-11T08:49:52.865Z,63.20
2019-04-11T08:52:29.791Z,63.45
2019-04-11T08:55:02.349Z,63.27
2019-04-11T08:57:34.247Z,63.31
2019-04-11T09:00:26.203Z,63.50
2019-04-11T09:03:01.773Z,63.50
2019-04-11T09:05:41.287Z,64.36
2019-04-11T09:08:30.032Z,75.79
2019-04-11T09:11:26.694Z,78.91
2019-04-11T09:14:20.349Z,78.91
2019-04-11T09:17:10.616Z,82.28
2019-04-11T09:20:13.672Z,82.28
2019-04-11T09:23:01.833Z,80.94
2019-04-11T09:26:05.676Z,80.93
2019-04-11T09:28:37.661Z,80.64
2019-04-11T09:31:41.733Z,78.17
2019-04-11T09:34:43.928Z,73.38
2019-04-11T09:37:31.065Z,73.38
2019-04-11T09:40:26.091Z,73.20
2019-04-11T09:43:12.962Z,71.02
2019-04-11T09:46:16.512Z,67.10
2019-04-11T09:49:04.396Z,66.49
2019-04-11T09:51:52.019Z,66.02
2019-04-11T09:54:44.213Z,63.94
2019-04-11T09:57:32.629Z,61.00
2019-04-11T10:00:26.579Z,60.11
2019-04-11T10:03:02.445Z,64.04
2019-04-11T10:05:59.319Z,64.04
2019-04-11T10:08:37.435Z,65.58
2019-04-11T10:11:24.248Z,71.25
2019-04-11T10:14:02.287Z,73.36
2019-04-11T10:17:06.554Z,75.44
2019-04-11T10:19:40.373Z,77.43
2019-04-11T10:22:29.168Z,77.27
2019-04-11T10:25:03.356Z,77.57
2019-04-11T10:27:51.016Z,77.10
2019-04-11T10:30:48.291Z,74.22
2019-04-11T10:33:39.489Z,71.07
2019-04-11T10:36:19.245Z,68.59
2019-04-11T10:38:49.407Z,68.59
2019-04-11T10:41:36.089Z,65.54
2019-04-11T10:44:05.575Z,63.08
2019-04-11T10:46:59.906Z,62.92
2019-04-11T10:49:50.891Z,63.15
2019-04-11T10:52:24.662Z,60.55
2019-04-11T10:55:21.872Z,59.66
2019-04-11T10:58:02.655Z,60.34
2019-04-11T11:00:45.321Z,60.05
2019-04-11T11:03:22.507Z,60.92
2019-04-11T11:05:53.597Z,61.48
2019-04-11T11:08:41.776Z,59.74
2019-04-11T11:11:30.430Z,59.22
2019-04-11T11:14:24.871Z,60.06
2019-04-11T11:17:00.579Z,59.05
2019-04-11T11:19:59.703Z,59.75
2019-04-11T11:22:34.472Z,59.89
2019-04-11T11:25:22.460Z,58.73
2019-04-11T11:27:52.355Z,58.14
2019-04-11T11:30:40.246Z,57.46
2019-04-11T11:33:09.954Z,58.69
2019-04-11T11:36:02.688Z,59.05
2019-04-11T11:38:31.274Z,58.76
2019-04-11T11:41:20.676Z,59.10
2019-04-11T11:43:50.184Z,58.86
2019-04-11T11:46:36.337Z,58.91
2019-04-11T11:49:18.930Z,57.75
2019-04-11T11:52:11.093Z,58.54
2019-04-11T11:54:44.173Z,58.96
2019-04-11T11:57:35.306Z,58.88
2019-04-11T12:00:16.901Z,57.46
2019-04-11T12:02:54.039Z,57.53
2019-04-11T12:05:36.727Z,57.49
2019-04-11T12:08:24.448Z,60.67
2019-04-11T12:11:01.766Z,61.32
2019-04-11T12:13:55.867Z,63.58
2019-04-11T12:16:33.105Z,62.08
2019-04-11T12:19:24.914Z,62.15
2019-04-11T12:21:55.858Z,61.38
2019-04-11T12:24:46.328Z,59.54
2019-04-11T12:27:28.942Z,59.54
2019-04-11T12:30:10.743Z,58.88
2019-04-11T12:32:52.915Z,58.88
2019-04-11T12:35:38.123Z,55.56
2019-04-11T12:38:12.812Z,54.34
2019-04-11T12:40:59.348Z,54.34
2019-04-11T12:43:41.323Z,53.76
2019-04-11T12:46:30.128Z,55.31
2019-04-11T12:49:06.138Z,55.73
2019-04-11T12:51:57.146Z,57.10
2019-04-11T12:54:28.874Z,57.10
2019-04-11T12:57:19.757Z,56.66
2019-04-11T12:59:50.038Z,56.27
2019-04-11T13:02:33.620Z,55.67
2019-04-11T13:05:03.401Z,55.71
2019-04-11T13:07:49.908Z,55.99
2019-04-11T13:10:43.892Z,57.07
2019-04-11T13:13:30.493Z,57.42
2019-04-11T13:16:12.064Z,57.19
2019-04-11T13:19:03.865Z,56.83
2019-04-11T13:21:39.709Z,56.83
2019-04-11T13:24:26.324Z,57.76
2019-04-11T13:27:13.957Z,57.75
2019-04-11T13:30:04.908Z,58.34
2019-04-11T13:32:52.793Z,58.19
2019-04-11T13:35:28.461Z,57.83
2019-04-11T13:38:11.390Z,56.74
2019-04-11T13:41:02.861Z,56.71
2019-04-11T13:43:43.506Z,55.81
2019-04-11T13:46:26.737Z,55.54
2019-04-11T13:49:13.501Z,56.45
2019-04-11T13:52:07.261Z,63.42
2019-04-11T13:55:01.057Z,63.42
2019-04-11T13:57:57.936Z,65.89
2019-04-11T14:00:49.917Z,65.70
2019-04-11T14:03:43.843Z,65.67
2019-04-11T14:06:35.981Z,66.29
2019-04-11T14:09:38.314Z,66.29
2019-04-11T14:12:12.017Z,65.57
2019-04-11T14:14:43.828Z,65.57
2019-04-11T14:17:41.599Z,66.30
2019-04-11T14:20:30.136Z,66.30
2019-04-11T14:23:17.469Z,66.16
2019-04-11T14:26:14.390Z,64.63
2019-04-11T14:29:14.375Z,64.63
2019-04-11T14:31:55.706Z,64.55
2019-04-11T14:34:35.769Z,63.49
2019-04-11T14:37:15.113Z,64.70
2019-04-11T14:39:46.540Z,63.53
2019-04-11T14:42:24.571Z,62.93
2019-04-11T14:44:53.521Z,62.76
2019-04-11T14:47:44.128Z,62.82
2019-04-11T14:50:13.406Z,64.45
2019-04-11T14:52:59.565Z,64.45
2019-04-11T14:55:28.572Z,64.44
2019-04-11T14:58:09.120Z,66.05
2019-04-11T15:00:42.175Z,66.91
2019-04-11T15:03:18.163Z,67.08
2019-04-11T15:06:15.346Z,67.08
2019-04-11T15:09:03.051Z,69.47
2019-04-11T15:11:43.496Z,69.35
2019-04-11T15:14:19.434Z,69.35
2019-04-11T15:17:10.302Z,68.22
2019-04-11T15:19:39.444Z,69.14
2019-04-11T15:22:27.334Z,71.28
2019-04-11T15:25:01.801Z,72.36
2019-04-11T15:27:58.829Z,70.96
2019-04-11T15:30:28.330Z,70.96
2019-04-11T15:33:14.937Z,71.00
2019-04-11T15:35:44.167Z,71.00
2019-04-11T15:38:37.842Z,70.73
2019-04-11T15:41:07.335Z,69.78
2019-04-11T15:44:01.343Z,69.27
2019-04-11T15:46:32.618Z,70.11
2019-04-11T15:49:23.421Z,69.72
2019-04-11T15:51:55.904Z,69.72
2019-04-11T15:54:43.828Z,69.18
2019-04-11T15:57:37.663Z,69.23
2019-04-11T16:00:29.357Z,69.23
2019-04-11T16:03:08.848Z,67.95
2019-04-11T16:05:55.925Z,69.12
2019-04-11T16:08:32.891Z,68.15
2019-04-11T16:11:19.521Z,67.54
2019-04-11T16:13:59.139Z,67.54
2019-04-11T16:16:39.713Z,67.57
2019-04-11T16:19:33.669Z,67.57
2019-04-11T16:22:24.729Z,67.56
2019-04-11T16:24:53.282Z,67.10
2019-04-11T16:27:54.383Z,67.10
2019-04-11T16:30:23.296Z,66.72
2019-04-11T16:33:09.893Z,66.72
2019-04-11T16:35:46.113Z,65.99
2019-04-11T16:38:18.814Z,65.06
2019-04-11T16:41:04.458Z,66.24
2019-04-11T16:43:33.495Z,65.17
2019-04-11T16:46:24.823Z,65.17
2019-04-11T16:48:55.892Z,64.51
2019-04-11T16:51:30.759Z,64.51
2019-04-11T16:53:55.407Z,63.77
2019-04-11T16:56:24.158Z,63.18
2019-04-11T16:58:52.786Z,61.91
2019-04-11T17:01:23.213Z,59.56
2019-04-11T17:03:54.897Z,59.19
2019-04-11T17:06:49.048Z,59.52
2019-04-11T17:09:29.664Z,61.79
2019-04-11T17:11:58.413Z,61.97
2019-04-11T17:14:28.417Z,60.79
2019-04-11T17:17:00.713Z,60.70
2019-04-11T17:19:28.799Z,59.93
2019-04-11T17:21:57.420Z,60.29
2019-04-11T17:24:26.590Z,60.93
2019-04-11T17:26:55.179Z,62.10
2019-04-11T17:29:24.902Z,64.64
2019-04-11T17:31:56.050Z,66.03
2019-04-11T17:34:25.273Z,66.03
2019-04-11T17:36:54.138Z,67.15
2019-04-11T17:39:22.775Z,68.24
2019-04-11T17:41:51.439Z,68.57
2019-04-11T17:44:20.304Z,68.57
2019-04-11T17:46:49.470Z,68.50
2019-04-11T17:49:18.141Z,68.50
2019-04-11T17:51:55.681Z,68.53
2019-04-11T17:54:17.390Z,67.72
2019-04-11T17:56:46.285Z,67.87
2019-04-11T17:59:15.192Z,67.75
2019-04-11T18:01:43.823Z,68.12
2019-04-11T18:04:13.619Z,67.77
2019-04-11T18:06:46.961Z,67.94
2019-04-11T18:09:13.564Z,67.75
2019-04-11T18:11:42.704Z,67.75
2019-04-11T18:14:11.429Z,67.98
2019-04-11T18:16:40.056Z,67.64
2019-04-11T18:19:09.877Z,67.64
2019-04-11T18:21:39.265Z,68.29
2019-04-11T18:24:08.290Z,68.20
2019-04-11T18:26:37.190Z,68.37
2019-04-11T18:29:06.098Z,68.80
2019-04-11T18:31:34.766Z,68.08
2019-04-11T18:34:03.466Z,68.08
2019-04-11T18:36:32.562Z,68.53
2019-04-11T18:39:05.611Z,68.89
2019-04-11T18:41:31.941Z,68.39
2019-04-11T18:44:00.572Z,69.35
2019-04-11T18:46:29.723Z,69.35
2019-04-11T18:48:58.879Z,70.04
2019-04-11T18:51:30.346Z,70.04
2019-04-11T18:53:58.708Z,69.88
2019-04-11T18:56:27.844Z,69.88
2019-04-11T18:58:57.082Z,70.08
2019-04-11T19:01:26.822Z,70.17
2019-04-11T19:03:55.772Z,69.78
2019-04-11T19:06:28.007Z,69.78
2019-04-11T19:08:55.088Z,69.61
2019-04-11T19:11:23.861Z,69.74
2019-04-11T19:13:52.760Z,69.38
2019-04-11T19:16:21.639Z,69.38
2019-04-11T19:18:50.297Z,69.05
2019-04-11T19:21:21.068Z,68.55
2019-04-11T19:23:49.955Z,68.64
2019-04-11T19:26:18.859Z,68.77
2019-04-11T19:28:49.277Z,68.34
2019-04-11T19:31:18.591Z,68.34
2019-04-11T19:33:47.429Z,67.47
2019-04-11T19:36:16.400Z,66.63
2019-04-11T19:38:45.361Z,66.23
2019-04-11T19:41:17.101Z,65.58
2019-04-11T19:43:44.391Z,66.17
2019-04-11T19:46:13.072Z,66.17
2019-04-11T19:48:41.720Z,65.19
2019-04-11T19:51:11.852Z,65.16
2019-04-11T19:53:40.998Z,64.81
2019-04-11T19:56:33.064Z,65.08
2019-04-11T19:59:02.037Z,64.75
2019-04-11T20:01:31.236Z,64.75
2019-04-11T20:04:00.482Z,64.78
2019-04-11T20:06:29.155Z,64.17
2019-04-11T20:08:58.117Z,64.32
2019-04-11T20:11:29.434Z,63.86
2019-04-11T20:14:00.029Z,64.11
2019-04-11T20:16:28.556Z,63.74
2019-04-11T20:18:58.600Z,63.74
2019-04-11T20:21:28.163Z,63.82
2019-04-11T20:23:57.572Z,63.79
2019-04-11T20:26:26.860Z,63.35
2019-04-11T20:28:56.351Z,63.48
2019-04-11T20:31:24.984Z,63.16
2019-04-11T20:33:53.624Z,63.36
2019-04-11T20:36:32.875Z,63.38
2019-04-11T20:38:53.396Z,63.38
2019-04-11T20:41:23.252Z,63.87
2019-04-11T20:43:55.882Z,64.36
2019-04-11T20:46:23.683Z,63.88
2019-04-11T20:48:54.632Z,64.28
2019-04-11T20:51:23.364Z,64.23
2019-04-11T20:53:52.246Z,63.67
2019-04-11T20:56:24.436Z,64.08
2019-04-11T20:58:52.091Z,63.81
2019-04-11T21:01:21.161Z,64.46
2019-04-11T21:03:50.024Z,64.22
2019-04-11T21:06:18.656Z,64.27
2019-04-11T21:08:47.635Z,64.14
2019-04-11T21:11:18.637Z,64.39
2019-04-11T21:13:47.458Z,64.45
2019-04-11T21:16:16.247Z,64.92
2019-04-11T21:18:45.122Z,65.00
2019-04-11T21:21:13.992Z,65.30
2019-04-11T21:23:42.860Z,65.08
2019-04-11T21:26:11.503Z,65.05
2019-04-11T21:28:40.455Z,64.69
2019-04-11T21:31:09.260Z,65.19
2019-04-11T21:33:38.156Z,65.14
2019-04-11T21:36:07.257Z,65.67
2019-04-11T21:38:35.861Z,65.34
2019-04-11T21:41:06.112Z,65.62
2019-04-11T21:43:36.300Z,65.97
2019-04-11T21:46:06.951Z,65.97
2019-04-11T21:48:36.644Z,66.05
2019-04-11T21:51:06.093Z,66.07
2019-04-11T21:53:36.885Z,66.64
2019-04-11T21:56:05.119Z,66.45
2019-04-11T21:58:33.971Z,66.60
2019-04-11T22:01:07.989Z,66.67
2019-04-11T22:03:37.219Z,67.65
2019-04-11T22:06:06.179Z,67.34
2019-04-11T22:08:35.126Z,67.56
2019-04-11T22:11:04.351Z,67.20
2019-04-11T22:13:33.225Z,67.17
2019-04-11T22:16:01.860Z,67.96
2019-04-11T22:18:30.531Z,67.84
2019-04-11T22:20:59.407Z,67.90
2019-04-11T22:23:28.836Z,67.70
2019-04-11T22:25:57.705Z,67.85
2019-04-11T22:28:26.555Z,67.45
2019-04-11T22:30:55.768Z,68.83
2019-04-11T22:33:31.514Z,68.83
2019-04-11T22:36:00.156Z,68.13
2019-04-11T22:38:30.976Z,68.56
2019-04-11T22:41:02.036Z,68.14
2019-04-11T22:43:30.363Z,68.44
2019-04-11T22:45:59.692Z,68.72
2019-04-11T22:48:28.307Z,68.40
2019-04-11T22:50:57.283Z,68.59
2019-04-11T22:53:25.886Z,68.25
2019-04-11T22:55:55.003Z,68.28
2019-04-11T22:58:24.167Z,68.59
2019-04-11T23:00:53.272Z,68.27
2019-04-11T23:03:26.026Z,68.53
2019-04-11T23:05:54.885Z,69.22
2019-04-11T23:08:23.778Z,68.86
2019-04-11T23:10:52.415Z,68.99
2019-04-11T23:13:21.705Z,68.64
2019-04-11T23:15:50.573Z,68.23
2019-04-11T23:18:19.311Z,68.36
2019-04-11T23:20:47.901Z,68.24
2019-04-11T23:23:16.765Z,68.42
2019-04-11T23:25:46.051Z,68.06
2019-04-11T23:28:15.875Z,68.40
2019-04-11T23:30:49.506Z,68.22
2019-04-11T23:33:15.761Z,68.26
2019-04-11T23:35:44.979Z,68.60
2019-04-11T23:38:13.867Z,68.01
2019-04-11T23:40:42.500Z,68.10
2019-04-11T23:43:11.461Z,68.04
2019-04-11T23:45:40.349Z,68.15
2019-04-11T23:48:09.226Z,68.00
2019-04-11T23:50:38.301Z,68.23
2019-04-11T23:53:07.442Z,68.64
2019-04-11T23:55:36.308Z,68.96
2019-04-11T23:58:05.622Z,69.02
